Time;durP1;ratioP1;P1;durP2;ratioP2;P2;SDS_P1;SDS_P2;PMS_P1;PMS_P2;Temp;Humidity;BMP_temperature;BMP_pressure;BME280_temperature;BME280_humidity;BME280_pressure;Samples;Min_cycle;Max_cycle;Signal;HPM_P1;HPM_P2
2022/08/09 00:01:27;;;;;;;0.60;0.40;;;14.20;99.90;;;;;;5990485;23;20083;-89
2022/08/09 00:04:11;;;;;;;0.50;0.40;;;14.20;99.90;;;;;;6014207;23;20032;-88
2022/08/09 00:07:22;;;;;;;1.17;0.40;;;14.20;99.90;;;;;;5989403;23;20121;-88
2022/08/09 00:10:38;;;;;;;;;;;;;;;;;;;;;
2022/08/09 00:17:36;;;;;;;0.43;0.40;;;14.80;99.90;;;;;;6016724;23;20019;-88
2022/08/09 00:24:30;;;;;;;0.70;0.50;;;13.90;99.90;;;;;;5961173;24;20032;-88
2022/08/09 00:27:02;;;;;;;;;;;;;;;;;;;;;
2022/08/09 00:30:00;;;;;;;;;;;;;;;;;;;;;
2022/08/09 00:32:45;;;;;;;2.97;0.50;;;13.90;99.90;;;;;;5936205;24;20449;-88
2022/08/09 00:35:47;;;;;;;0.82;0.60;;;13.80;99.90;;;;;;5909420;24;20009;-88
2022/08/09 00:38:35;;;;;;;0.60;0.50;;;13.80;99.90;;;;;;5883144;24;20028;-88
2022/08/09 00:41:11;;;;;;;0.75;0.52;;;13.60;99.90;;;;;;5902449;24;20077;-87
2022/08/09 00:43:46;;;;;;;0.77;0.55;;;13.80;99.90;;;;;;5883969;24;20024;-87
2022/08/09 00:46:33;;;;;;;0.73;0.50;;;13.80;99.90;;;;;;5883746;24;20016;-88
2022/08/09 00:49:15;;;;;;;0.60;0.43;;;13.80;99.90;;;;;;5884745;24;20025;-86
2022/08/09 00:52:01;;;;;;;0.60;0.60;;;13.80;99.90;;;;;;5888395;24;20016;-89
2022/08/09 00:57:37;;;;;;;;;;;13.80;99.90;;;;;;6058072;23;20097;-88
2022/08/09 01:00:30;;;;;;;1.25;0.40;;;13.80;99.90;;;;;;6080703;23;19917;-86
2022/08/09 01:03:38;;;;;;;0.70;0.35;;;13.70;99.90;;;;;;6036625;23;20041;-88
2022/08/09 01:06:26;;;;;;;0.30;0.30;;;13.70;99.90;;;;;;6082051;23;20022;-87
2022/08/09 01:09:02;;;;;;;0.40;0.30;;;13.70;99.90;;;;;;6079971;23;20346;-87
2022/08/09 01:12:33;;;;;;;1.90;0.60;;;13.60;99.90;;;;;;6079683;23;20046;-86
2022/08/09 01:15:12;;;;;;;0.50;0.43;;;13.90;99.90;;;;;;6020434;23;20122;-87
2022/08/09 01:18:47;;;;;;;1.75;0.50;;;13.60;99.90;;;;;;6202135;22;20357;-89
2022/08/09 01:24:42;;;;;;;0.47;0.40;;;13.40;99.90;;;;;;6200273;23;20049;-85
2022/08/09 01:27:25;;;;;;;0.77;0.30;;;13.30;99.90;;;;;;6177491;23;20021;-85
2022/08/09 01:30:22;;;;;;;0.60;0.40;;;13.30;99.90;;;;;;6173526;23;20016;-86
2022/08/09 01:32:55;;;;;;;1.33;0.40;;;13.30;99.90;;;;;;6174855;23;20028;-87
2022/08/09 01:39:18;;;;;;;;;;;;;;;;;;;;;
2022/08/09 01:42:11;;;;;;;3.08;0.70;;;13.30;99.90;;;;;;6180720;23;20008;-88
2022/08/09 01:44:54;;;;;;;0.70;0.40;;;13.10;99.90;;;;;;6185544;23;20013;-86
2022/08/09 01:47:41;;;;;;;0.50;0.35;;;13.30;99.90;;;;;;6160731;23;20056;-88
2022/08/09 01:50:39;;;;;;;1.67;0.55;;;13.30;99.90;;;;;;6210249;23;20001;-87
2022/08/09 01:53:12;;;;;;;0.70;0.35;;;13.60;99.90;;;;;;6183771;23;20044;-87
2022/08/09 01:55:59;;;;;;;0.68;0.45;;;13.20;99.90;;;;;;6211520;23;20054;-88
2022/08/09 01:58:59;;;;;;;0.90;0.20;;;13.10;99.90;;;;;;6260038;22;20035;-87
2022/08/09 02:01:52;;;;;;;;;;;;;;;;;;;;;
2022/08/09 02:08:12;;;;;;;0.25;0.20;;;13.00;99.90;;;;;;6304120;22;20007;-89
2022/08/09 02:10:52;;;;;;;0.20;0.20;;;13.10;99.90;;;;;;6277334;22;20000;-87
2022/08/09 02:13:41;;;;;;;0.65;0.25;;;13.00;99.90;;;;;;6277128;22;20011;-88
2022/08/09 02:16:35;;;;;;;;;;;;;;;;;;;;;
2022/08/09 02:19:58;;;;;;;0.30;0.30;;;12.90;99.90;;;;;;6275865;22;20083;-88
2022/08/09 02:22:46;;;;;;;;;;;;;;;;;;;;;
2022/08/09 02:25:31;;;;;;;0.20;0.20;;;12.90;99.90;;;;;;6267855;22;20004;-88
2022/08/09 02:28:46;;;;;;;0.38;0.25;;;12.90;99.90;;;;;;6299911;22;20016;-87
2022/08/09 02:31:41;;;;;;;0.40;0.20;;;12.90;99.90;;;;;;6183819;22;20076;-88
2022/08/09 02:34:27;;;;;;;0.20;0.20;;;12.70;99.90;;;;;;6299628;22;20011;-88
2022/08/09 02:37:09;;;;;;;;;;;;;;;;;;;;;
2022/08/09 02:39:56;;;;;;;0.82;0.20;;;12.80;99.90;;;;;;6198933;22;20040;-88
2022/08/09 02:42:42;;;;;;;0.40;0.22;;;13.10;99.90;;;;;;6289041;22;20047;-88
2022/08/09 02:49:21;;;;;;;1.23;0.50;;;12.70;99.90;;;;;;6036959;23;20069;-88
2022/08/09 02:54:44;;;;;;;0.45;0.40;;;12.60;99.90;;;;;;6255933;22;20024;-88
2022/08/09 02:57:36;;;;;;;0.38;0.22;;;12.60;99.90;;;;;;6269571;23;20026;-88
2022/08/09 03:00:46;;;;;;;0.60;0.30;;;12.60;99.90;;;;;;6244194;22;20012;-87
2022/08/09 03:03:21;;;;;;;1.55;0.20;;;12.60;99.90;;;;;;6223039;23;20084;-87
2022/08/09 03:06:13;;;;;;;;;;;;;;;;;;;;;
2022/08/09 03:11:40;;;;;;;0.30;0.30;;;12.90;99.90;;;;;;6149180;23;20006;-88
2022/08/09 03:14:24;;;;;;;0.30;0.30;;;12.50;99.90;;;;;;6104108;23;20026;-88
2022/08/09 03:17:06;;;;;;;0.37;0.30;;;12.70;99.90;;;;;;6126785;23;20021;-89
2022/08/09 03:19:35;;;;;;;0.30;0.30;;;12.40;99.90;;;;;;6150111;23;20037;-88
2022/08/09 03:22:04;;;;;;;7.20;0.50;;;12.50;99.90;;;;;;6127659;23;20021;-88
2022/08/09 03:24:48;;;;;;;;;;;;;;;;;;;;;
2022/08/09 03:27:25;;;;;;;0.45;0.35;;;12.20;99.90;;;;;;6122640;23;20056;-87
2022/08/09 03:29:57;;;;;;;1.38;0.45;;;12.50;99.90;;;;;;6125393;23;20073;-88
2022/08/09 03:32:50;;;;;;;0.75;0.45;;;12.10;99.90;;;;;;6123889;23;20022;-88
2022/08/09 03:38:59;;;;;;;1.67;0.40;;;12.40;99.90;;;;;;6151165;23;20148;-88
2022/08/09 03:41:34;;;;;;;0.40;0.40;;;12.40;99.90;;;;;;6098665;23;20036;-87
2022/08/09 03:44:05;;;;;;;0.47;0.43;;;12.50;99.90;;;;;;6126708;23;20014;-88
2022/08/09 03:46:43;;;;;;;0.57;0.30;;;12.50;99.90;;;;;;6151424;23;20022;-87
2022/08/09 03:59:10;;;;;;;1.75;0.40;;;12.10;99.90;;;;;;6209717;23;20025;-90
2022/08/09 04:02:07;;;;;;;;;;;;;;;;;;;;;
2022/08/09 04:04:39;;;;;;;1.95;0.40;;;12.50;99.90;;;;;;6207990;23;20031;-87
2022/08/09 04:07:17;;;;;;;0.70;0.40;;;12.50;99.90;;;;;;6212397;23;20160;-87
2022/08/09 04:09:53;;;;;;;0.98;0.40;;;12.40;99.90;;;;;;6213788;23;20017;-88
2022/08/09 04:13:00;;;;;;;0.85;0.40;;;12.50;99.90;;;;;;6215092;23;20021;-87
2022/08/09 04:15:35;;;;;;;0.40;0.35;;;12.50;99.90;;;;;;6239744;23;20017;-87
2022/08/09 04:18:24;;;;;;;0.40;0.30;;;12.60;99.90;;;;;;6215089;23;20015;-86
2022/08/09 04:21:00;;;;;;;0.70;0.28;;;12.90;99.90;;;;;;6214406;23;20012;-86
2022/08/09 04:23:43;;;;;;;0.43;0.20;;;12.50;99.90;;;;;;6236162;23;20024;-87
2022/08/09 04:26:13;;;;;;;0.20;0.15;;;12.50;99.90;;;;;;6210692;23;20071;-86
2022/08/09 04:28:59;;;;;;;1.20;0.30;;;12.50;99.90;;;;;;6211097;23;20013;-88
2022/08/09 04:31:30;;;;;;;0.30;0.30;;;12.70;99.90;;;;;;6236345;23;20027;-88
2022/08/09 04:33:59;;;;;;;0.40;0.30;;;12.20;99.90;;;;;;6211964;23;20032;-85
2022/08/09 04:36:29;;;;;;;0.40;0.30;;;12.30;99.90;;;;;;6190593;23;20434;-84
2022/08/09 04:39:25;;;;;;;;;;;;;;;;;;;;;
2022/08/09 04:42:42;;;;;;;;;;;;;;;;;;;;;
2022/08/09 04:45:34;;;;;;;0.52;0.35;;;12.40;99.90;;;;;;6132559;23;20059;-88
2022/08/09 04:48:07;;;;;;;0.63;0.32;;;12.30;99.90;;;;;;6206518;23;20021;-86
2022/08/09 04:54:34;;;;;;;0.90;0.22;;;12.30;99.90;;;;;;6245188;23;20084;-86
2022/08/09 04:57:15;;;;;;;1.75;0.32;;;12.40;99.90;;;;;;6242834;23;20024;-85
2022/08/09 05:00:05;;;;;;;1.65;0.30;;;12.30;99.90;;;;;;6216907;23;20037;-88
2022/08/09 05:02:55;;;;;;;0.20;0.20;;;12.40;99.90;;;;;;6242277;23;20035;-87
2022/08/09 05:09:19;;;;;;;0.30;0.20;;;12.40;99.90;;;;;;6266980;23;20030;-88
2022/08/09 05:11:50;;;;;;;0.32;0.30;;;12.50;99.90;;;;;;6245915;22;20347;-89
2022/08/09 05:14:41;;;;;;;;;;;;;;;;;;;;;
2022/08/09 05:17:13;;;;;;;0.68;0.55;;;12.60;99.90;;;;;;6123564;22;20004;-88
2022/08/09 05:20:04;;;;;;;0.30;0.20;;;12.60;99.90;;;;;;6247105;22;20026;-89
2022/08/09 05:22:45;;;;;;;0.50;0.30;;;12.90;99.90;;;;;;6273338;22;20004;-89
2022/08/09 05:25:16;;;;;;;0.20;0.17;;;13.20;99.90;;;;;;6273646;22;20016;-89
2022/08/09 05:28:09;;;;;;;;;;;;;;;;;;;;;
2022/08/09 05:34:19;;;;;;;;;;;;;;;;;;;;;
2022/08/09 06:20:02;;;;;;;0.30;0.30;;;15.90;99.90;;;;;;6196900;22;20019;-92
2022/08/09 06:22:28;;;;;;;0.30;0.30;;;16.20;99.90;;;;;;6285298;22;20024;-81
2022/08/09 06:24:53;;;;;;;0.40;0.32;;;16.30;99.90;;;;;;6284281;22;20020;-82
2022/08/09 06:27:19;;;;;;;2.15;0.47;;;16.40;99.90;;;;;;6261793;22;20019;-84
2022/08/09 06:29:45;;;;;;;0.50;0.50;;;16.50;99.90;;;;;;6295428;22;20008;-82
2022/08/09 06:32:11;;;;;;;2.13;0.50;;;16.70;99.90;;;;;;6292055;22;20020;-83
2022/08/09 06:34:36;;;;;;;1.27;0.60;;;16.90;99.90;;;;;;6290170;22;20046;-83
2022/08/09 06:37:02;;;;;;;1.15;0.47;;;17.00;99.90;;;;;;6290819;22;20037;-85
2022/08/09 06:39:29;;;;;;;1.27;0.40;;;17.20;99.90;;;;;;6264394;22;20012;-83
2022/08/09 06:41:55;;;;;;;1.08;0.47;;;17.30;99.90;;;;;;6291179;22;20026;-83
2022/08/09 06:44:21;;;;;;;0.77;0.40;;;17.40;99.90;;;;;;6287809;22;20378;-85
2022/08/09 06:46:47;;;;;;;0.57;0.45;;;17.60;99.90;;;;;;6259332;22;20016;-87
2022/08/09 06:49:13;;;;;;;3.58;0.50;;;17.70;99.90;;;;;;6260405;22;20542;-85
2022/08/09 06:55:30;;;;;;;0.93;0.63;;;18.00;99.90;;;;;;6293666;22;20042;-86
2022/08/09 07:16:09;;;;;;;0.73;0.40;;;19.20;99.90;;;;;;6231728;22;20024;-89
2022/08/09 08:04:01;;;;;;;0.52;0.20;;;21.20;99.90;;;;;;6168529;22;20102;-87
2022/08/09 08:07:06;;;;;;;;;;;;;;;;;;;;;
2022/08/09 08:09:38;;;;;;;0.75;0.30;;;21.90;99.90;;;;;;6221304;23;20351;-86
2022/08/09 08:12:10;;;;;;;1.48;0.40;;;22.20;99.90;;;;;;6222170;23;20016;-88
2022/08/09 08:14:36;;;;;;;1.17;0.40;;;22.30;99.90;;;;;;6222009;23;20417;-89
2022/08/09 08:17:11;;;;;;;1.50;0.20;;;22.60;99.90;;;;;;6222303;23;20035;-89
2022/08/09 08:19:36;;;;;;;0.60;0.20;;;22.70;99.90;;;;;;6223726;23;20021;-88
2022/08/09 08:22:10;;;;;;;0.82;0.30;;;22.80;99.90;;;;;;6222018;23;20347;-89
2022/08/09 08:24:54;;;;;;;0.20;0.10;;;22.60;99.90;;;;;;6197619;23;20080;-88
2022/08/09 08:55:27;;;;;;;1.05;0.20;;;22.60;99.90;;;;;;6143284;22;20053;-87
2022/08/09 11:39:02;;;;;;;0.95;0.13;;;25.50;96.00;;;;;;6146888;23;20047;-85
2022/08/09 11:41:29;;;;;;;0.05;0.05;;;25.70;97.20;;;;;;6218761;23;20351;-87
2022/08/09 11:47:01;;;;;;;0.03;0.00;;;26.40;97.80;;;;;;6218078;23;20104;-86
2022/08/09 11:50:05;;;;;;;0.20;0.00;;;26.80;98.10;;;;;;6218661;23;20051;-88
2022/08/09 12:35:03;;;;;;;0.45;0.08;;;28.90;95.40;;;;;;6187438;22;20124;-87
2022/08/09 12:41:38;;;;;;;1.08;0.00;;;29.00;95.20;;;;;;6206946;22;20035;-88
2022/08/09 12:44:05;;;;;;;0.30;0.10;;;29.10;95.00;;;;;;6196853;23;20020;-86
2022/08/09 12:46:31;;;;;;;0.40;0.10;;;29.10;95.10;;;;;;6214545;23;20016;-88
2022/08/09 12:48:57;;;;;;;0.10;0.00;;;29.10;95.60;;;;;;6214880;23;20477;-86
2022/08/09 12:51:57;;;;;;;1.45;0.30;;;29.20;95.10;;;;;;6217532;23;20012;-92
2022/08/09 14:32:58;;;;;;;0.47;0.08;;;26.80;90.00;;;;;;6189351;22;20024;-88
2022/08/09 14:50:07;;;;;;;0.30;0.13;;;26.90;89.20;;;;;;6065968;23;20034;-87
2022/08/09 14:52:39;;;;;;;0.32;0.13;;;26.50;88.80;;;;;;6156324;23;20021;-90
2022/08/09 14:59:42;;;;;;;0.00;0.00;;;26.70;87.80;;;;;;5897422;24;20033;-89
2022/08/09 15:02:49;;;;;;;0.28;0.10;;;26.60;89.70;;;;;;5768109;24;20015;-90
2022/08/09 15:05:51;;;;;;;0.28;0.00;;;26.50;89.70;;;;;;5790170;24;20031;-89
2022/08/09 15:09:15;;;;;;;;;;;;;;;;;;;;;
2022/08/09 15:12:42;;;;;;;0.10;0.10;;;26.50;89.90;;;;;;5657833;24;20012;-89
2022/08/09 15:26:12;;;;;;;0.10;0.00;;;26.60;90.20;;;;;;4755150;27;10663693;-89
2022/08/09 15:29:09;;;;;;;0.20;0.00;;;26.50;89.20;;;;;;5047092;28;20452;-89
2022/08/09 15:32:17;;;;;;;2.92;0.10;;;26.60;88.90;;;;;;4972050;28;20498;-88
2022/08/09 15:35:08;;;;;;;;;;;;;;;;;;;;;
2022/08/09 15:40:49;;;;;;;0.00;0.00;;;26.10;89.60;;;;;;4951110;29;20052;-90
2022/08/09 15:43:20;;;;;;;0.10;0.10;;;26.10;88.30;;;;;;4950042;29;20059;-91
2022/08/09 17:06:22;;;;;;;;;;;;;;;;;;;;;
2022/08/09 17:09:15;;;;;;;0.10;0.00;;;22.30;93.00;;;;;;4988490;24;20065;-91
2022/08/09 17:12:08;;;;;;;;;;;;;;;;;;;;;
2022/08/09 17:35:17;;;;;;;0.50;0.30;;;21.20;94.60;;;;;;4001625;24;20527;-88
2022/08/09 17:37:44;;;;;;;0.10;0.10;;;21.30;94.50;;;;;;4872198;29;20045;-90
2022/08/09 17:40:10;;;;;;;0.30;0.10;;;21.20;94.60;;;;;;4881601;29;20504;-87
2022/08/09 17:42:36;;;;;;;0.10;0.10;;;21.20;94.70;;;;;;4869199;29;20084;-87
2022/08/09 17:45:02;;;;;;;1.85;0.10;;;21.10;95.10;;;;;;4880363;29;20044;-90
2022/08/09 17:47:28;;;;;;;0.20;0.10;;;21.00;95.40;;;;;;4883158;29;20049;-93
2022/08/09 17:49:54;;;;;;;0.68;0.10;;;21.00;95.20;;;;;;4863907;29;20056;-92
2022/08/09 17:52:40;;;;;;;0.25;0.10;;;21.00;95.40;;;;;;4883509;29;20171;-90
2022/08/09 17:55:07;;;;;;;0.30;0.20;;;20.90;96.20;;;;;;4830421;29;20065;-93
2022/08/09 17:57:33;;;;;;;0.10;0.10;;;20.80;96.20;;;;;;4847686;29;20085;-86
2022/08/09 18:00:48;;;;;;;;;;;;;;;;;;;;;
2022/08/09 18:03:17;;;;;;;1.00;0.20;;;20.70;96.60;;;;;;4827029;29;20424;-90
2022/08/09 18:05:42;;;;;;;0.10;0.10;;;20.60;96.90;;;;;;4842577;29;20091;-88
2022/08/09 18:08:10;;;;;;;0.30;0.10;;;20.50;97.40;;;;;;4826113;29;20077;-89
2022/08/09 18:10:36;;;;;;;0.75;0.10;;;20.50;97.50;;;;;;4826076;29;20053;-89
2022/08/09 18:13:04;;;;;;;0.10;0.10;;;20.30;98.30;;;;;;4826004;29;20493;-89
2022/08/09 18:15:30;;;;;;;0.10;0.10;;;20.30;98.40;;;;;;4825643;29;20069;-88
2022/08/09 18:17:56;;;;;;;0.52;0.20;;;20.20;99.20;;;;;;4823781;29;20045;-89
2022/08/09 18:20:25;;;;;;;0.45;0.20;;;20.10;99.60;;;;;;4845353;29;20253;-90
2022/08/09 18:22:50;;;;;;;0.52;0.20;;;20.10;99.60;;;;;;4847716;29;20144;-92
2022/08/09 18:25:16;;;;;;;0.93;0.20;;;20.00;99.90;;;;;;4831654;29;20090;-91
2022/08/09 18:27:58;;;;;;;2.97;0.20;;;20.00;99.90;;;;;;4862870;29;20101;-91
2022/08/09 18:30:24;;;;;;;0.15;0.10;;;19.90;99.90;;;;;;4862502;29;20091;-87
2022/08/09 18:32:50;;;;;;;0.10;0.10;;;19.90;99.90;;;;;;4869637;29;20084;-88
2022/08/09 18:35:24;;;;;;;0.35;0.13;;;19.80;99.90;;;;;;4868981;29;20061;-91
2022/08/09 18:37:50;;;;;;;0.30;0.10;;;19.80;99.90;;;;;;4862098;29;20065;-90
2022/08/09 18:40:16;;;;;;;0.25;0.20;;;19.70;99.90;;;;;;4856979;29;20445;-90
2022/08/09 18:42:43;;;;;;;0.17;0.10;;;19.60;99.90;;;;;;4864750;29;20449;-90
2022/08/09 18:45:10;;;;;;;0.40;0.10;;;19.60;99.90;;;;;;4858812;29;20087;-91
2022/08/09 18:47:35;;;;;;;0.45;0.20;;;19.50;99.90;;;;;;4860670;29;20051;-90
2022/08/09 18:50:02;;;;;;;0.47;0.10;;;19.30;99.90;;;;;;4902326;29;20041;-87
2022/08/09 18:52:30;;;;;;;3.35;0.20;;;19.20;99.90;;;;;;4868663;29;20049;-93
2022/08/09 18:54:59;;;;;;;0.20;0.20;;;19.10;99.90;;;;;;4889532;29;20049;-86
2022/08/09 18:57:26;;;;;;;0.10;0.10;;;19.00;99.90;;;;;;4865035;29;20052;-86
2022/08/09 18:59:54;;;;;;;2.03;0.20;;;19.00;99.90;;;;;;4890811;29;20440;-93
2022/08/09 19:02:20;;;;;;;0.45;0.10;;;18.90;99.90;;;;;;4867261;29;20086;-95
2022/08/09 19:04:46;;;;;;;0.45;0.30;;;18.70;99.90;;;;;;4890590;29;20131;-87
2022/08/09 19:07:12;;;;;;;0.75;0.30;;;18.80;99.90;;;;;;4878870;29;20047;-86
2022/08/09 19:09:38;;;;;;;0.40;0.30;;;18.70;99.90;;;;;;4874970;29;20477;-86
2022/08/09 19:12:07;;;;;;;0.35;0.20;;;18.70;99.90;;;;;;4865683;29;20045;-85
2022/08/09 19:14:33;;;;;;;0.50;0.30;;;18.70;99.90;;;;;;4883389;29;20049;-85
2022/08/09 19:16:59;;;;;;;1.05;0.30;;;18.60;99.90;;;;;;4880968;29;20121;-87
2022/08/09 19:19:25;;;;;;;1.70;0.30;;;18.60;99.90;;;;;;4866027;29;20063;-87
2022/08/09 19:21:50;;;;;;;0.45;0.30;;;18.50;99.90;;;;;;4891716;29;20097;-91
2022/08/09 19:27:57;;;;;;;1.17;0.30;;;18.80;99.90;;;;;;4876259;29;20056;-90
2022/08/09 19:30:32;;;;;;;2.40;0.30;;;18.40;99.90;;;;;;4881661;29;20037;-93
2022/08/09 19:32:58;;;;;;;1.23;0.40;;;18.10;99.90;;;;;;4883068;29;20055;-89
2022/08/09 19:35:25;;;;;;;0.43;0.20;;;18.30;99.90;;;;;;4864057;29;20061;-94
2022/08/09 19:37:52;;;;;;;0.75;0.40;;;18.30;99.90;;;;;;4884031;29;20040;-89
2022/08/09 19:40:20;;;;;;;0.40;0.28;;;18.30;99.90;;;;;;4877662;29;20547;-92
2022/08/09 19:42:46;;;;;;;0.77;0.20;;;18.20;99.90;;;;;;4861336;29;20056;-86
2022/08/09 19:45:12;;;;;;;0.80;0.20;;;18.20;99.90;;;;;;4871766;29;20064;-86
2022/08/09 19:47:38;;;;;;;0.52;0.20;;;18.10;99.90;;;;;;4885702;29;20045;-95
2022/08/09 19:50:04;;;;;;;1.25;0.30;;;18.10;99.90;;;;;;4865663;29;20059;-94
2022/08/09 19:52:30;;;;;;;0.30;0.20;;;18.00;99.90;;;;;;4867968;29;20084;-86
2022/08/09 19:54:58;;;;;;;0.35;0.22;;;18.00;99.90;;;;;;4895168;29;20057;-87
2022/08/09 19:57:27;;;;;;;0.28;0.22;;;17.90;99.90;;;;;;4877978;29;20056;-92
2022/08/09 19:59:53;;;;;;;1.02;0.30;;;17.80;99.90;;;;;;4886260;29;20045;-87
2022/08/09 20:02:19;;;;;;;0.30;0.30;;;17.80;99.90;;;;;;4882270;29;20049;-89
2022/08/09 20:04:44;;;;;;;0.50;0.20;;;17.70;99.90;;;;;;4865120;29;20060;-90
2022/08/09 20:07:13;;;;;;;0.43;0.22;;;17.70;99.90;;;;;;4865868;29;20560;-92
2022/08/09 20:09:39;;;;;;;0.35;0.30;;;17.60;99.90;;;;;;4886340;29;20056;-90
2022/08/09 20:12:07;;;;;;;1.65;0.22;;;17.50;99.90;;;;;;4868566;29;20056;-89
2022/08/09 20:14:33;;;;;;;2.20;0.35;;;17.50;99.90;;;;;;4866900;29;20057;-88
2022/08/09 20:17:01;;;;;;;0.28;0.20;;;17.50;99.90;;;;;;4863587;29;20101;-90
2022/08/09 20:19:33;;;;;;;1.67;0.30;;;17.40;99.90;;;;;;4886462;29;20045;-90
2022/08/09 20:21:59;;;;;;;0.20;0.20;;;17.30;99.90;;;;;;4862003;29;20041;-88
2022/08/09 20:24:25;;;;;;;0.95;0.30;;;17.30;99.90;;;;;;4865623;29;20045;-88
2022/08/09 20:27:01;;;;;;;0.63;0.30;;;17.30;99.90;;;;;;4898137;29;20074;-87
2022/08/09 20:29:27;;;;;;;1.13;0.30;;;17.20;99.90;;;;;;4885162;29;20080;-87
2022/08/09 20:31:53;;;;;;;0.40;0.40;;;17.20;99.90;;;;;;4856681;29;20048;-87
2022/08/09 20:34:42;;;;;;;0.47;0.40;;;17.10;99.90;;;;;;4873218;29;20084;-88
2022/08/09 20:37:11;;;;;;;3.03;0.35;;;17.10;99.90;;;;;;4846726;29;20132;-86
2022/08/09 20:43:18;;;;;;;0.68;0.30;;;16.90;99.90;;;;;;4869257;29;20045;-87
2022/08/09 20:45:44;;;;;;;1.45;0.40;;;16.80;99.90;;;;;;4870400;29;20049;-90
2022/08/09 20:48:10;;;;;;;0.65;0.45;;;16.80;99.90;;;;;;4846615;29;20049;-88
2022/08/09 20:50:35;;;;;;;0.73;0.50;;;16.70;99.90;;;;;;4874079;29;20049;-88
2022/08/09 20:53:01;;;;;;;0.90;0.60;;;16.40;99.90;;;;;;4866772;29;20052;-89
2022/08/09 20:55:27;;;;;;;0.50;0.40;;;16.60;99.90;;;;;;4868630;29;20054;-88
2022/08/09 20:57:53;;;;;;;0.73;0.50;;;16.50;99.90;;;;;;4847984;29;20053;-86
2022/08/09 21:00:18;;;;;;;0.40;0.40;;;16.50;99.90;;;;;;4848484;29;20053;-87
2022/08/09 21:02:44;;;;;;;0.40;0.35;;;16.50;99.90;;;;;;4859168;29;20045;-87
2022/08/09 21:05:10;;;;;;;1.60;0.40;;;16.40;99.90;;;;;;4846115;29;20058;-86
2022/08/09 21:07:36;;;;;;;1.85;0.30;;;16.40;99.90;;;;;;4848035;29;20383;-88
2022/08/09 21:10:02;;;;;;;0.50;0.30;;;16.00;99.90;;;;;;4862243;29;20513;-87
2022/08/09 21:12:29;;;;;;;0.90;0.30;;;16.40;99.90;;;;;;4847063;29;20516;-87
2022/08/09 21:14:56;;;;;;;1.00;0.50;;;16.40;99.90;;;;;;4861996;29;20041;-86
2022/08/09 21:17:22;;;;;;;1.08;0.50;;;16.40;99.90;;;;;;4851893;29;20041;-89
2022/08/09 21:19:48;;;;;;;1.02;0.40;;;16.40;99.90;;;;;;4845911;29;20128;-86
2022/08/09 21:22:14;;;;;;;0.82;0.52;;;17.00;99.90;;;;;;4868933;29;20200;-87
2022/08/09 21:27:31;;;;;;;0.80;0.40;;;16.30;99.90;;;;;;4856198;29;20069;-86
2022/08/09 21:29:58;;;;;;;3.70;0.50;;;16.30;99.90;;;;;;4854597;29;20049;-85
2022/08/09 21:32:24;;;;;;;3.58;0.60;;;16.20;99.90;;;;;;4859796;29;20077;-86
2022/08/09 21:34:50;;;;;;;1.35;0.63;;;16.00;99.90;;;;;;4867026;29;20093;-85
2022/08/09 21:37:16;;;;;;;0.95;0.55;;;16.00;99.90;;;;;;4845575;29;20049;-86
2022/08/09 21:39:41;;;;;;;1.38;0.50;;;15.90;99.90;;;;;;4850910;29;20051;-86
2022/08/09 21:42:07;;;;;;;2.38;0.52;;;15.90;99.90;;;;;;4860404;29;20045;-85
2022/08/09 21:44:33;;;;;;;0.70;0.60;;;15.80;99.90;;;;;;4844795;29;20405;-85
2022/08/09 21:46:59;;;;;;;1.00;0.57;;;15.70;99.90;;;;;;4844857;29;20057;-86
2022/08/09 21:49:25;;;;;;;0.55;0.40;;;15.90;99.90;;;;;;4861411;29;20055;-86
2022/08/09 21:51:50;;;;;;;0.60;0.50;;;15.90;99.90;;;;;;4860893;29;20124;-85
2022/08/09 21:54:16;;;;;;;1.60;0.50;;;16.40;99.90;;;;;;4858516;29;20050;-86
2022/08/09 21:56:45;;;;;;;0.57;0.38;;;15.90;99.90;;;;;;4861390;29;20042;-85
2022/08/09 21:59:11;;;;;;;0.68;0.57;;;16.00;99.90;;;;;;4860173;29;20078;-85
2022/08/09 22:01:36;;;;;;;2.50;0.80;;;15.90;99.90;;;;;;4860903;29;20045;-86
2022/08/09 22:04:02;;;;;;;0.70;0.50;;;15.90;99.90;;;;;;4858649;29;20049;-86
2022/08/09 22:06:28;;;;;;;1.52;0.70;;;15.90;99.90;;;;;;4861195;29;20497;-85
2022/08/09 22:08:54;;;;;;;1.60;0.60;;;15.90;99.90;;;;;;4860522;29;20056;-86
2022/08/09 22:11:19;;;;;;;1.13;0.70;;;16.80;99.90;;;;;;4867956;29;20049;-85
2022/08/09 22:13:45;;;;;;;1.75;0.70;;;16.10;99.90;;;;;;4860688;29;20110;-86
2022/08/09 22:16:11;;;;;;;0.77;0.70;;;15.90;99.90;;;;;;4859894;29;20060;-85
2022/08/09 22:18:38;;;;;;;1.38;0.50;;;16.00;99.90;;;;;;4844316;29;20052;-85
2022/08/09 22:21:05;;;;;;;1.23;0.45;;;15.90;99.90;;;;;;4863167;29;20151;-85
2022/08/09 22:23:31;;;;;;;0.82;0.50;;;16.00;99.90;;;;;;4855515;29;20053;-85
2022/08/09 22:25:57;;;;;;;0.88;0.50;;;16.00;99.90;;;;;;4859155;29;20074;-86
2022/08/09 22:28:22;;;;;;;0.57;0.40;;;16.00;99.90;;;;;;4843796;29;20089;-86
2022/08/09 22:30:48;;;;;;;0.90;0.43;;;16.00;99.90;;;;;;4843787;29;20038;-85
2022/08/09 22:33:14;;;;;;;2.00;0.60;;;16.00;99.90;;;;;;4843404;29;20073;-85
2022/08/09 22:35:39;;;;;;;0.95;0.57;;;16.00;99.90;;;;;;4829707;29;20479;-85
2022/08/09 22:38:05;;;;;;;1.83;0.63;;;15.90;99.90;;;;;;4841742;29;20050;-85
2022/08/09 22:40:31;;;;;;;1.50;0.77;;;15.90;99.90;;;;;;4841737;29;20050;-85
2022/08/09 22:42:56;;;;;;;1.52;0.60;;;15.90;99.90;;;;;;4825513;29;20425;-85
2022/08/09 22:45:22;;;;;;;0.65;0.60;;;15.90;99.90;;;;;;4841795;29;20115;-84
2022/08/09 22:47:48;;;;;;;1.25;0.50;;;16.00;99.90;;;;;;4836577;29;20094;-85
2022/08/09 22:50:13;;;;;;;2.42;0.98;;;15.90;99.90;;;;;;4841941;29;20048;-86
2022/08/09 22:52:39;;;;;;;1.13;0.70;;;15.90;99.90;;;;;;4827671;29;20085;-85
2022/08/09 22:55:06;;;;;;;0.82;0.50;;;15.90;99.90;;;;;;4835597;29;20057;-85
2022/08/09 22:57:32;;;;;;;1.25;0.60;;;15.90;99.90;;;;;;4827815;29;20050;-85
2022/08/09 22:59:57;;;;;;;1.05;0.60;;;15.90;99.90;;;;;;4848099;29;20048;-87
2022/08/09 23:02:23;;;;;;;1.63;0.68;;;16.50;99.90;;;;;;4841859;29;20042;-85
2022/08/09 23:04:49;;;;;;;1.75;0.80;;;15.80;99.90;;;;;;4841779;29;20155;-85
2022/08/09 23:09:58;;;;;;;1.35;0.85;;;15.80;99.90;;;;;;4840037;29;20128;-85
2022/08/09 23:12:24;;;;;;;1.00;0.75;;;15.70;99.90;;;;;;4835870;29;20069;-85
2022/08/09 23:14:50;;;;;;;1.23;0.82;;;15.60;99.90;;;;;;4825423;29;20141;-85
2022/08/09 23:17:15;;;;;;;1.55;0.70;;;15.60;99.90;;;;;;4842114;29;20049;-85
2022/08/09 23:19:41;;;;;;;1.67;0.70;;;15.50;99.90;;;;;;4832190;29;20050;-85
2022/08/09 23:22:07;;;;;;;1.77;0.80;;;15.60;99.90;;;;;;4819950;29;20046;-85
2022/08/09 23:24:33;;;;;;;1.80;0.70;;;15.50;99.90;;;;;;4833573;29;20409;-85
2022/08/09 23:26:59;;;;;;;1.15;0.73;;;15.50;99.90;;;;;;4840722;29;20141;-85
2022/08/09 23:29:24;;;;;;;1.20;0.68;;;15.50;99.90;;;;;;4843205;29;20133;-84
2022/08/09 23:31:50;;;;;;;0.73;0.60;;;15.50;99.90;;;;;;4841513;29;20045;-85
2022/08/09 23:34:17;;;;;;;0.85;0.70;;;15.50;99.90;;;;;;4843224;29;20217;-85
2022/08/09 23:36:43;;;;;;;0.90;0.60;;;15.40;99.90;;;;;;4862671;29;20057;-85
2022/08/09 23:39:09;;;;;;;1.52;0.80;;;15.40;99.90;;;;;;4846966;29;20064;-85
2022/08/09 23:41:35;;;;;;;0.80;0.68;;;15.40;99.90;;;;;;4859249;29;20041;-85
2022/08/09 23:44:01;;;;;;;1.35;0.80;;;15.30;99.90;;;;;;4863288;29;20523;-85
2022/08/09 23:46:28;;;;;;;2.50;0.80;;;15.30;99.90;;;;;;4862986;29;20069;-85
2022/08/09 23:48:54;;;;;;;1.00;0.77;;;15.30;99.90;;;;;;4849016;29;20059;-85
2022/08/09 23:51:19;;;;;;;1.65;1.13;;;15.30;99.90;;;;;;4848406;29;20049;-85
2022/08/09 23:53:45;;;;;;;1.98;0.60;;;15.20;99.90;;;;;;4846396;29;20401;-85
2022/08/09 23:56:11;;;;;;;2.08;0.63;;;15.20;99.90;;;;;;4861071;29;20057;-85
2022/08/09 23:58:37;;;;;;;1.30;0.60;;;15.20;99.90;;;;;;4862914;29;20037;-84
